sensor_id;sensor_type;location;lat;lon;timestamp;temperature;humidity
44982;DHT22;30716;41.740;-70.400;2023-02-03T00:01:42;27.00;33.40
44982;DHT22;30716;41.740;-70.400;2023-02-03T00:04:08;27.10;33.50
44982;DHT22;30716;41.740;-70.400;2023-02-03T00:06:34;27.20;33.60
44982;DHT22;30716;41.740;-70.400;2023-02-03T00:09:01;27.20;33.60
44982;DHT22;30716;41.740;-70.400;2023-02-03T00:11:31;27.20;33.60
44982;DHT22;30716;41.740;-70.400;2023-02-03T00:13:57;27.10;33.50
44982;DHT22;30716;41.740;-70.400;2023-02-03T00:16:24;27.00;33.40
44982;DHT22;30716;41.740;-70.400;2023-02-03T00:18:50;27.00;34.00
44982;DHT22;30716;41.740;-70.400;2023-02-03T00:21:17;26.90;33.70
44982;DHT22;30716;41.740;-70.400;2023-02-03T00:23:43;26.90;34.10
44982;DHT22;30716;41.740;-70.400;2023-02-03T00:26:11;26.90;33.60
44982;DHT22;30716;41.740;-70.400;2023-02-03T00:28:38;26.90;34.10
44982;DHT22;30716;41.740;-70.400;2023-02-03T00:31:04;26.90;34.10
44982;DHT22;30716;41.740;-70.400;2023-02-03T00:33:30;26.90;34.20
44982;DHT22;30716;41.740;-70.400;2023-02-03T00:36:04;26.90;34.40
44982;DHT22;30716;41.740;-70.400;2023-02-03T00:38:30;26.90;34.60
44982;DHT22;30716;41.740;-70.400;2023-02-03T00:40:56;26.90;34.40
44982;DHT22;30716;41.740;-70.400;2023-02-03T00:43:22;26.90;34.50
44982;DHT22;30716;41.740;-70.400;2023-02-03T00:45:48;26.80;34.40
44982;DHT22;30716;41.740;-70.400;2023-02-03T00:48:14;26.80;34.70
44982;DHT22;30716;41.740;-70.400;2023-02-03T00:50:41;26.80;34.40
44982;DHT22;30716;41.740;-70.400;2023-02-03T00:53:07;26.90;34.40
44982;DHT22;30716;41.740;-70.400;2023-02-03T00:55:33;26.80;34.20
44982;DHT22;30716;41.740;-70.400;2023-02-03T00:57:59;26.80;34.40
44982;DHT22;30716;41.740;-70.400;2023-02-03T01:00:25;26.80;34.40
44982;DHT22;30716;41.740;-70.400;2023-02-03T01:02:51;26.80;34.50
44982;DHT22;30716;41.740;-70.400;2023-02-03T01:05:17;26.80;34.40
44982;DHT22;30716;41.740;-70.400;2023-02-03T01:07:44;26.90;34.50
44982;DHT22;30716;41.740;-70.400;2023-02-03T01:10:10;27.00;34.50
44982;DHT22;30716;41.740;-70.400;2023-02-03T01:12:36;26.90;34.20
44982;DHT22;30716;41.740;-70.400;2023-02-03T01:15:02;26.90;34.30
44982;DHT22;30716;41.740;-70.400;2023-02-03T01:17:29;26.90;34.30
44982;DHT22;30716;41.740;-70.400;2023-02-03T01:19:55;26.90;34.00
44982;DHT22;30716;41.740;-70.400;2023-02-03T01:22:21;26.90;34.20
44982;DHT22;30716;41.740;-70.400;2023-02-03T01:24:47;27.00;34.20
44982;DHT22;30716;41.740;-70.400;2023-02-03T01:27:13;27.00;34.10
44982;DHT22;30716;41.740;-70.400;2023-02-03T01:29:40;27.00;34.20
44982;DHT22;30716;41.740;-70.400;2023-02-03T01:32:06;27.00;34.50
44982;DHT22;30716;41.740;-70.400;2023-02-03T01:34:32;27.00;34.20
44982;DHT22;30716;41.740;-70.400;2023-02-03T01:36:58;27.00;34.20
44982;DHT22;30716;41.740;-70.400;2023-02-03T01:39:24;27.00;33.90
44982;DHT22;30716;41.740;-70.400;2023-02-03T01:41:54;27.00;34.20
44982;DHT22;30716;41.740;-70.400;2023-02-03T01:44:42;26.90;33.90
44982;DHT22;30716;41.740;-70.400;2023-02-03T01:47:28;26.90;34.10
44982;DHT22;30716;41.740;-70.400;2023-02-03T01:50:18;27.00;34.40
44982;DHT22;30716;41.740;-70.400;2023-02-03T01:52:53;26.90;34.90
44982;DHT22;30716;41.740;-70.400;2023-02-03T01:55:28;26.90;34.00
44982;DHT22;30716;41.740;-70.400;2023-02-03T01:58:00;27.00;34.20
44982;DHT22;30716;41.740;-70.400;2023-02-03T02:00:28;27.00;34.10
44982;DHT22;30716;41.740;-70.400;2023-02-03T02:02:55;27.00;34.00
44982;DHT22;30716;41.740;-70.400;2023-02-03T02:08:08;26.90;34.20
44982;DHT22;30716;41.740;-70.400;2023-02-03T02:10:36;26.80;34.00
44982;DHT22;30716;41.740;-70.400;2023-02-03T02:13:03;26.80;33.90
44982;DHT22;30716;41.740;-70.400;2023-02-03T02:27:05;26.80;34.20
44982;DHT22;30716;41.740;-70.400;2023-02-03T02:30:31;26.80;34.40
44982;DHT22;30716;41.740;-70.400;2023-02-03T02:33:04;26.80;34.20
44982;DHT22;30716;41.740;-70.400;2023-02-03T02:39:06;26.80;34.30
44982;DHT22;30716;41.740;-70.400;2023-02-03T02:41:59;26.90;34.40
44982;DHT22;30716;41.740;-70.400;2023-02-03T02:44:40;27.00;34.10
44982;DHT22;30716;41.740;-70.400;2023-02-03T02:47:17;27.00;34.20
44982;DHT22;30716;41.740;-70.400;2023-02-03T02:49:52;27.00;34.30
44982;DHT22;30716;41.740;-70.400;2023-02-03T02:52:20;27.00;33.90
44982;DHT22;30716;41.740;-70.400;2023-02-03T02:54:51;27.00;33.80
44982;DHT22;30716;41.740;-70.400;2023-02-03T02:57:20;27.00;34.30
44982;DHT22;30716;41.740;-70.400;2023-02-03T02:59:48;27.00;33.80
44982;DHT22;30716;41.740;-70.400;2023-02-03T03:02:14;27.00;34.30
44982;DHT22;30716;41.740;-70.400;2023-02-03T03:04:42;27.00;34.40
44982;DHT22;30716;41.740;-70.400;2023-02-03T03:07:18;27.00;34.20
44982;DHT22;30716;41.740;-70.400;2023-02-03T03:09:53;27.00;34.40
44982;DHT22;30716;41.740;-70.400;2023-02-03T03:12:31;27.10;34.30
44982;DHT22;30716;41.740;-70.400;2023-02-03T03:15:13;27.00;34.40
44982;DHT22;30716;41.740;-70.400;2023-02-03T03:17:46;27.00;34.60
44982;DHT22;30716;41.740;-70.400;2023-02-03T03:20:24;27.00;34.80
44982;DHT22;30716;41.740;-70.400;2023-02-03T03:23:01;27.00;34.70
44982;DHT22;30716;41.740;-70.400;2023-02-03T03:25:42;27.10;34.70
44982;DHT22;30716;41.740;-70.400;2023-02-03T03:28:15;27.10;34.50
44982;DHT22;30716;41.740;-70.400;2023-02-03T03:30:42;27.20;34.20
44982;DHT22;30716;41.740;-70.400;2023-02-03T03:33:09;27.30;34.30
44982;DHT22;30716;41.740;-70.400;2023-02-03T03:39:05;27.40;34.20
44982;DHT22;30716;41.740;-70.400;2023-02-03T03:41:56;27.30;33.90
44982;DHT22;30716;41.740;-70.400;2023-02-03T03:44:29;27.50;33.80
44982;DHT22;30716;41.740;-70.400;2023-02-03T03:47:11;27.60;33.80
44982;DHT22;30716;41.740;-70.400;2023-02-03T03:49:45;27.60;33.90
44982;DHT22;30716;41.740;-70.400;2023-02-03T03:52:17;27.60;33.90
44982;DHT22;30716;41.740;-70.400;2023-02-03T03:54:46;27.50;33.80
44982;DHT22;30716;41.740;-70.400;2023-02-03T03:57:38;27.40;34.00
44982;DHT22;30716;41.740;-70.400;2023-02-03T04:00:08;27.30;34.40
44982;DHT22;30716;41.740;-70.400;2023-02-03T04:02:36;27.30;34.70
44982;DHT22;30716;41.740;-70.400;2023-02-03T04:05:04;27.20;34.80
44982;DHT22;30716;41.740;-70.400;2023-02-03T04:07:41;27.10;34.70
44982;DHT22;30716;41.740;-70.400;2023-02-03T04:12:41;27.00;35.00
44982;DHT22;30716;41.740;-70.400;2023-02-03T04:15:08;26.90;35.10
44982;DHT22;30716;41.740;-70.400;2023-02-03T04:17:34;26.90;35.40
44982;DHT22;30716;41.740;-70.400;2023-02-03T04:20:03;26.80;35.20
44982;DHT22;30716;41.740;-70.400;2023-02-03T04:22:29;26.70;35.50
44982;DHT22;30716;41.740;-70.400;2023-02-03T04:24:55;26.70;35.70
44982;DHT22;30716;41.740;-70.400;2023-02-03T04:27:27;26.60;35.60
44982;DHT22;30716;41.740;-70.400;2023-02-03T04:29:53;26.60;35.80
44982;DHT22;30716;41.740;-70.400;2023-02-03T04:32:19;26.60;35.70
44982;DHT22;30716;41.740;-70.400;2023-02-03T04:34:46;26.70;35.80
44982;DHT22;30716;41.740;-70.400;2023-02-03T04:37:12;26.80;35.70
44982;DHT22;30716;41.740;-70.400;2023-02-03T04:39:38;26.80;35.60
44982;DHT22;30716;41.740;-70.400;2023-02-03T04:42:04;26.80;35.60
44982;DHT22;30716;41.740;-70.400;2023-02-03T04:44:31;26.90;35.50
44982;DHT22;30716;41.740;-70.400;2023-02-03T04:46:57;26.90;35.50
44982;DHT22;30716;41.740;-70.400;2023-02-03T04:49:23;26.90;35.50
44982;DHT22;30716;41.740;-70.400;2023-02-03T04:51:50;27.00;35.20
44982;DHT22;30716;41.740;-70.400;2023-02-03T04:54:16;27.00;34.90
44982;DHT22;30716;41.740;-70.400;2023-02-03T04:56:43;27.00;35.10
44982;DHT22;30716;41.740;-70.400;2023-02-03T04:59:09;27.00;35.20
44982;DHT22;30716;41.740;-70.400;2023-02-03T05:01:35;27.00;35.00
44982;DHT22;30716;41.740;-70.400;2023-02-03T05:04:02;27.10;35.20
44982;DHT22;30716;41.740;-70.400;2023-02-03T05:06:28;27.10;35.10
44982;DHT22;30716;41.740;-70.400;2023-02-03T05:08:57;27.10;35.00
44982;DHT22;30716;41.740;-70.400;2023-02-03T05:11:24;27.00;35.10
44982;DHT22;30716;41.740;-70.400;2023-02-03T05:13:50;27.10;34.90
44982;DHT22;30716;41.740;-70.400;2023-02-03T05:16:17;27.10;35.10
44982;DHT22;30716;41.740;-70.400;2023-02-03T05:18:43;27.00;35.00
44982;DHT22;30716;41.740;-70.400;2023-02-03T05:21:09;27.10;34.90
44982;DHT22;30716;41.740;-70.400;2023-02-03T05:23:35;27.10;35.00
44982;DHT22;30716;41.740;-70.400;2023-02-03T05:26:03;27.10;35.00
44982;DHT22;30716;41.740;-70.400;2023-02-03T05:28:30;27.10;35.10
44982;DHT22;30716;41.740;-70.400;2023-02-03T05:31:00;27.10;34.90
44982;DHT22;30716;41.740;-70.400;2023-02-03T05:33:27;27.10;34.70
44982;DHT22;30716;41.740;-70.400;2023-02-03T05:35:54;27.10;34.90
44982;DHT22;30716;41.740;-70.400;2023-02-03T05:38:20;27.10;34.60
44982;DHT22;30716;41.740;-70.400;2023-02-03T05:40:47;27.20;34.60
44982;DHT22;30716;41.740;-70.400;2023-02-03T05:43:32;27.10;34.90
44982;DHT22;30716;41.740;-70.400;2023-02-03T05:46:02;27.10;34.80
44982;DHT22;30716;41.740;-70.400;2023-02-03T05:48:29;27.10;34.70
44982;DHT22;30716;41.740;-70.400;2023-02-03T05:50:55;27.20;34.50
44982;DHT22;30716;41.740;-70.400;2023-02-03T05:53:22;27.10;34.80
44982;DHT22;30716;41.740;-70.400;2023-02-03T05:55:48;27.10;34.80
44982;DHT22;30716;41.740;-70.400;2023-02-03T05:58:14;27.10;34.90
44982;DHT22;30716;41.740;-70.400;2023-02-03T06:00:41;27.20;34.80
44982;DHT22;30716;41.740;-70.400;2023-02-03T06:03:07;27.20;35.00
44982;DHT22;30716;41.740;-70.400;2023-02-03T06:05:34;27.20;35.10
44982;DHT22;30716;41.740;-70.400;2023-02-03T06:08:02;27.30;34.80
44982;DHT22;30716;41.740;-70.400;2023-02-03T06:10:28;27.40;34.70
44982;DHT22;30716;41.740;-70.400;2023-02-03T06:12:54;27.50;34.40
44982;DHT22;30716;41.740;-70.400;2023-02-03T06:15:21;27.50;34.60
44982;DHT22;30716;41.740;-70.400;2023-02-03T06:17:48;27.60;34.60
44982;DHT22;30716;41.740;-70.400;2023-02-03T06:20:16;27.60;33.80
44982;DHT22;30716;41.740;-70.400;2023-02-03T06:22:42;27.70;33.90
44982;DHT22;30716;41.740;-70.400;2023-02-03T06:25:09;27.80;34.00
44982;DHT22;30716;41.740;-70.400;2023-02-03T06:27:36;27.90;34.10
44982;DHT22;30716;41.740;-70.400;2023-02-03T06:30:03;27.90;34.10
44982;DHT22;30716;41.740;-70.400;2023-02-03T06:32:29;27.80;34.00
44982;DHT22;30716;41.740;-70.400;2023-02-03T06:34:55;27.80;34.70
44982;DHT22;30716;41.740;-70.400;2023-02-03T06:37:21;27.70;35.10
44982;DHT22;30716;41.740;-70.400;2023-02-03T06:39:47;27.70;35.10
44982;DHT22;30716;41.740;-70.400;2023-02-03T06:42:13;27.60;35.10
44982;DHT22;30716;41.740;-70.400;2023-02-03T06:44:40;27.60;35.40
44982;DHT22;30716;41.740;-70.400;2023-02-03T06:47:06;27.60;35.20
44982;DHT22;30716;41.740;-70.400;2023-02-03T06:49:32;27.60;35.20
44982;DHT22;30716;41.740;-70.400;2023-02-03T06:51:58;27.60;35.30
44982;DHT22;30716;41.740;-70.400;2023-02-03T06:54:24;27.60;35.40
44982;DHT22;30716;41.740;-70.400;2023-02-03T06:56:51;27.50;35.40
44982;DHT22;30716;41.740;-70.400;2023-02-03T06:59:17;27.50;35.30
44982;DHT22;30716;41.740;-70.400;2023-02-03T07:01:43;27.50;35.30
44982;DHT22;30716;41.740;-70.400;2023-02-03T07:04:09;27.50;35.30
44982;DHT22;30716;41.740;-70.400;2023-02-03T07:06:36;27.50;35.40
44982;DHT22;30716;41.740;-70.400;2023-02-03T07:09:04;27.50;35.40
44982;DHT22;30716;41.740;-70.400;2023-02-03T07:11:31;27.50;35.20
44982;DHT22;30716;41.740;-70.400;2023-02-03T07:13:57;27.50;35.40
44982;DHT22;30716;41.740;-70.400;2023-02-03T07:16:23;27.50;35.20
44982;DHT22;30716;41.740;-70.400;2023-02-03T07:18:52;27.50;35.30
44982;DHT22;30716;41.740;-70.400;2023-02-03T07:21:18;27.50;35.10
44982;DHT22;30716;41.740;-70.400;2023-02-03T07:23:47;27.50;35.30
44982;DHT22;30716;41.740;-70.400;2023-02-03T07:26:14;27.50;35.20
44982;DHT22;30716;41.740;-70.400;2023-02-03T07:28:41;27.50;35.00
44982;DHT22;30716;41.740;-70.400;2023-02-03T07:31:07;27.60;34.80
44982;DHT22;30716;41.740;-70.400;2023-02-03T07:33:36;27.50;35.00
44982;DHT22;30716;41.740;-70.400;2023-02-03T07:36:02;27.60;35.10
44982;DHT22;30716;41.740;-70.400;2023-02-03T07:38:29;27.50;34.90
44982;DHT22;30716;41.740;-70.400;2023-02-03T07:40:55;27.60;35.00
44982;DHT22;30716;41.740;-70.400;2023-02-03T07:43:22;27.50;34.90
44982;DHT22;30716;41.740;-70.400;2023-02-03T07:45:48;27.50;34.70
44982;DHT22;30716;41.740;-70.400;2023-02-03T07:48:15;27.50;35.00
44982;DHT22;30716;41.740;-70.400;2023-02-03T07:50:41;27.50;35.00
44982;DHT22;30716;41.740;-70.400;2023-02-03T07:53:07;27.40;34.90
44982;DHT22;30716;41.740;-70.400;2023-02-03T07:55:37;27.50;35.20
44982;DHT22;30716;41.740;-70.400;2023-02-03T07:58:04;27.50;35.00
44982;DHT22;30716;41.740;-70.400;2023-02-03T08:00:30;27.50;34.90
44982;DHT22;30716;41.740;-70.400;2023-02-03T08:02:56;27.50;35.70
44982;DHT22;30716;41.740;-70.400;2023-02-03T08:05:23;27.50;35.00
44982;DHT22;30716;41.740;-70.400;2023-02-03T08:07:49;27.50;34.90
44982;DHT22;30716;41.740;-70.400;2023-02-03T08:10:15;27.50;35.00
44982;DHT22;30716;41.740;-70.400;2023-02-03T08:12:42;27.50;34.90
44982;DHT22;30716;41.740;-70.400;2023-02-03T08:15:09;27.50;35.70
44982;DHT22;30716;41.740;-70.400;2023-02-03T08:17:36;27.50;35.00
44982;DHT22;30716;41.740;-70.400;2023-02-03T08:20:06;27.50;35.00
44982;DHT22;30716;41.740;-70.400;2023-02-03T08:22:32;27.50;35.20
44982;DHT22;30716;41.740;-70.400;2023-02-03T08:24:58;27.50;35.00
44982;DHT22;30716;41.740;-70.400;2023-02-03T08:27:24;27.50;35.00
44982;DHT22;30716;41.740;-70.400;2023-02-03T08:29:50;27.60;35.00
44982;DHT22;30716;41.740;-70.400;2023-02-03T08:32:20;27.60;35.00
44982;DHT22;30716;41.740;-70.400;2023-02-03T08:34:47;27.60;35.00
44982;DHT22;30716;41.740;-70.400;2023-02-03T08:37:15;27.50;35.00
44982;DHT22;30716;41.740;-70.400;2023-02-03T08:39:42;27.50;35.00
44982;DHT22;30716;41.740;-70.400;2023-02-03T08:42:08;27.50;35.80
44982;DHT22;30716;41.740;-70.400;2023-02-03T08:44:34;27.50;35.00
44982;DHT22;30716;41.740;-70.400;2023-02-03T08:47:01;27.50;35.30
44982;DHT22;30716;41.740;-70.400;2023-02-03T08:49:28;27.50;35.00
44982;DHT22;30716;41.740;-70.400;2023-02-03T08:51:55;27.50;35.00
44982;DHT22;30716;41.740;-70.400;2023-02-03T08:54:23;27.50;35.00
44982;DHT22;30716;41.740;-70.400;2023-02-03T08:56:49;27.50;34.80
44982;DHT22;30716;41.740;-70.400;2023-02-03T08:59:15;27.50;34.90
44982;DHT22;30716;41.740;-70.400;2023-02-03T09:01:42;27.50;34.90
44982;DHT22;30716;41.740;-70.400;2023-02-03T09:04:11;27.50;35.00
44982;DHT22;30716;41.740;-70.400;2023-02-03T09:06:37;27.50;34.90
44982;DHT22;30716;41.740;-70.400;2023-02-03T09:09:04;27.50;35.20
44982;DHT22;30716;41.740;-70.400;2023-02-03T09:11:30;27.50;34.90
44982;DHT22;30716;41.740;-70.400;2023-02-03T09:13:56;27.50;34.90
44982;DHT22;30716;41.740;-70.400;2023-02-03T09:16:23;27.50;35.20
44982;DHT22;30716;41.740;-70.400;2023-02-03T09:18:50;27.60;35.00
44982;DHT22;30716;41.740;-70.400;2023-02-03T09:21:17;27.70;34.60
44982;DHT22;30716;41.740;-70.400;2023-02-03T09:23:44;27.70;34.80
44982;DHT22;30716;41.740;-70.400;2023-02-03T09:26:14;27.70;34.50
44982;DHT22;30716;41.740;-70.400;2023-02-03T09:28:40;27.80;34.00
44982;DHT22;30716;41.740;-70.400;2023-02-03T09:31:08;27.80;34.10
44982;DHT22;30716;41.740;-70.400;2023-02-03T09:33:36;27.90;34.10
44982;DHT22;30716;41.740;-70.400;2023-02-03T09:36:02;27.80;34.10
44982;DHT22;30716;41.740;-70.400;2023-02-03T09:38:30;27.80;35.20
44982;DHT22;30716;41.740;-70.400;2023-02-03T09:46:18;27.70;35.00
44982;DHT22;30716;41.740;-70.400;2023-02-03T09:51:23;27.70;34.60
44982;DHT22;30716;41.740;-70.400;2023-02-03T09:54:24;27.70;34.60
44982;DHT22;30716;41.740;-70.400;2023-02-03T09:56:52;27.60;34.90
44982;DHT22;30716;41.740;-70.400;2023-02-03T09:59:21;27.60;34.90
44982;DHT22;30716;41.740;-70.400;2023-02-03T10:04:41;27.60;34.70
44982;DHT22;30716;41.740;-70.400;2023-02-03T10:17:52;27.50;35.10
44982;DHT22;30716;41.740;-70.400;2023-02-03T10:20:33;27.50;35.00
44982;DHT22;30716;41.740;-70.400;2023-02-03T10:23:09;27.50;35.30
44982;DHT22;30716;41.740;-70.400;2023-02-03T10:25:40;27.50;35.20
44982;DHT22;30716;41.740;-70.400;2023-02-03T10:28:17;27.50;35.00
44982;DHT22;30716;41.740;-70.400;2023-02-03T10:30:47;27.50;35.10
44982;DHT22;30716;41.740;-70.400;2023-02-03T10:33:17;27.50;35.10
44982;DHT22;30716;41.740;-70.400;2023-02-03T10:41:03;27.40;34.90
44982;DHT22;30716;41.740;-70.400;2023-02-03T10:43:31;27.50;35.10
44982;DHT22;30716;41.740;-70.400;2023-02-03T10:46:18;27.50;34.90
44982;DHT22;30716;41.740;-70.400;2023-02-03T10:48:45;27.40;35.00
44982;DHT22;30716;41.740;-70.400;2023-02-03T10:51:24;27.40;35.00
44982;DHT22;30716;41.740;-70.400;2023-02-03T10:53:51;27.40;35.10
44982;DHT22;30716;41.740;-70.400;2023-02-03T10:56:22;27.50;35.00
44982;DHT22;30716;41.740;-70.400;2023-02-03T10:58:54;27.50;35.10
44982;DHT22;30716;41.740;-70.400;2023-02-03T11:01:27;27.50;35.00
44982;DHT22;30716;41.740;-70.400;2023-02-03T11:04:04;27.50;35.20
44982;DHT22;30716;41.740;-70.400;2023-02-03T11:06:31;27.50;35.10
44982;DHT22;30716;41.740;-70.400;2023-02-03T11:08:58;27.50;35.00
44982;DHT22;30716;41.740;-70.400;2023-02-03T11:11:28;27.50;35.10
44982;DHT22;30716;41.740;-70.400;2023-02-03T11:16:29;27.50;35.10
44982;DHT22;30716;41.740;-70.400;2023-02-03T11:19:19;27.50;35.30
44982;DHT22;30716;41.740;-70.400;2023-02-03T11:21:53;27.40;35.30
44982;DHT22;30716;41.740;-70.400;2023-02-03T11:24:29;27.30;35.50
44982;DHT22;30716;41.740;-70.400;2023-02-03T11:26:57;27.30;35.50
44982;DHT22;30716;41.740;-70.400;2023-02-03T11:29:30;27.20;35.50
44982;DHT22;30716;41.740;-70.400;2023-02-03T11:32:17;27.20;35.80
44982;DHT22;30716;41.740;-70.400;2023-02-03T11:35:02;27.10;35.80
44982;DHT22;30716;41.740;-70.400;2023-02-03T11:42:41;26.90;36.10
44982;DHT22;30716;41.740;-70.400;2023-02-03T11:45:19;26.90;36.10
44982;DHT22;30716;41.740;-70.400;2023-02-03T11:47:55;27.00;35.90
44982;DHT22;30716;41.740;-70.400;2023-02-03T12:04:26;27.20;35.40
44982;DHT22;30716;41.740;-70.400;2023-02-03T12:07:26;27.20;35.30
44982;DHT22;30716;41.740;-70.400;2023-02-03T12:10:07;27.20;35.20
44982;DHT22;30716;41.740;-70.400;2023-02-03T12:12:56;27.30;35.20
44982;DHT22;30716;41.740;-70.400;2023-02-03T12:21:40;27.30;34.90
44982;DHT22;30716;41.740;-70.400;2023-02-03T12:24:43;27.30;34.90
44982;DHT22;30716;41.740;-70.400;2023-02-03T12:27:20;27.30;34.80
44982;DHT22;30716;41.740;-70.400;2023-02-03T12:29:57;27.30;35.00
44982;DHT22;30716;41.740;-70.400;2023-02-03T12:32:35;27.30;34.90
44982;DHT22;30716;41.740;-70.400;2023-02-03T12:35:29;27.40;34.90
44982;DHT22;30716;41.740;-70.400;2023-02-03T12:38:11;27.40;35.10
44982;DHT22;30716;41.740;-70.400;2023-02-03T12:40:51;27.40;35.00
44982;DHT22;30716;41.740;-70.400;2023-02-03T12:43:38;27.50;34.90
44982;DHT22;30716;41.740;-70.400;2023-02-03T12:46:16;27.60;34.60
44982;DHT22;30716;41.740;-70.400;2023-02-03T12:51:49;27.70;34.70
44982;DHT22;30716;41.740;-70.400;2023-02-03T12:57:18;27.80;34.00
44982;DHT22;30716;41.740;-70.400;2023-02-03T13:00:02;27.90;34.20
44982;DHT22;30716;41.740;-70.400;2023-02-03T13:05:44;28.00;34.20
44982;DHT22;30716;41.740;-70.400;2023-02-03T13:10:51;27.90;34.20
44982;DHT22;30716;41.740;-70.400;2023-02-03T13:13:28;27.90;34.60
44982;DHT22;30716;41.740;-70.400;2023-02-03T13:15:56;27.90;34.40
44982;DHT22;30716;41.740;-70.400;2023-02-03T13:18:30;27.90;34.60
44982;DHT22;30716;41.740;-70.400;2023-02-03T13:20:57;27.80;34.40
44982;DHT22;30716;41.740;-70.400;2023-02-03T13:23:24;27.70;34.90
44982;DHT22;30716;41.740;-70.400;2023-02-03T13:42:27;27.30;35.70
44982;DHT22;30716;41.740;-70.400;2023-02-03T13:45:43;27.40;35.70
44982;DHT22;30716;41.740;-70.400;2023-02-03T13:47:49;27.30;35.30
44982;DHT22;30716;41.740;-70.400;2023-02-03T13:50:23;27.40;35.70
44982;DHT22;30716;41.740;-70.400;2023-02-03T13:52:56;27.40;35.60
44982;DHT22;30716;41.740;-70.400;2023-02-03T13:55:37;27.40;35.60
44982;DHT22;30716;41.740;-70.400;2023-02-03T13:58:05;27.30;35.50
44982;DHT22;30716;41.740;-70.400;2023-02-03T14:06:00;27.20;35.50
44982;DHT22;30716;41.740;-70.400;2023-02-03T14:16:36;26.90;35.90
44982;DHT22;30716;41.740;-70.400;2023-02-03T14:19:04;26.90;36.10
44982;DHT22;30716;41.740;-70.400;2023-02-03T14:24:15;26.80;36.40
44982;DHT22;30716;41.740;-70.400;2023-02-03T14:26:51;26.80;36.50
44982;DHT22;30716;41.740;-70.400;2023-02-03T14:29:34;26.70;36.40
44982;DHT22;30716;41.740;-70.400;2023-02-03T14:34:45;26.60;36.90
44982;DHT22;30716;41.740;-70.400;2023-02-03T14:37:25;26.60;36.70
44982;DHT22;30716;41.740;-70.400;2023-02-03T14:51:44;26.60;36.40
44982;DHT22;30716;41.740;-70.400;2023-02-03T14:57:33;26.80;35.90
44982;DHT22;30716;41.740;-70.400;2023-02-03T15:05:50;27.00;35.60
44982;DHT22;30716;41.740;-70.400;2023-02-03T15:08:36;27.00;35.50
44982;DHT22;30716;41.740;-70.400;2023-02-03T15:11:26;27.00;35.60
44982;DHT22;30716;41.740;-70.400;2023-02-03T15:13:54;27.00;35.50
44982;DHT22;30716;41.740;-70.400;2023-02-03T15:16:24;26.90;35.50
44982;DHT22;30716;41.740;-70.400;2023-02-03T15:18:59;26.90;35.80
44982;DHT22;30716;41.740;-70.400;2023-02-03T15:21:32;26.80;35.90
44982;DHT22;30716;41.740;-70.400;2023-02-03T15:24:16;26.80;35.70
44982;DHT22;30716;41.740;-70.400;2023-02-03T15:26:50;26.70;35.80
44982;DHT22;30716;41.740;-70.400;2023-02-03T15:29:28;26.70;36.10
44982;DHT22;30716;41.740;-70.400;2023-02-03T15:32:08;26.60;36.20
44982;DHT22;30716;41.740;-70.400;2023-02-03T15:34:42;26.50;36.20
44982;DHT22;30716;41.740;-70.400;2023-02-03T15:40:00;26.50;36.40
44982;DHT22;30716;41.740;-70.400;2023-02-03T15:42:35;26.50;36.40
44982;DHT22;30716;41.740;-70.400;2023-02-03T15:45:25;26.50;36.20
44982;DHT22;30716;41.740;-70.400;2023-02-03T15:48:17;26.50;36.20
44982;DHT22;30716;41.740;-70.400;2023-02-03T15:50:49;26.60;36.10
44982;DHT22;30716;41.740;-70.400;2023-02-03T15:53:29;26.60;35.80
44982;DHT22;30716;41.740;-70.400;2023-02-03T15:56:00;26.70;35.80
44982;DHT22;30716;41.740;-70.400;2023-02-03T15:58:38;26.70;35.70
44982;DHT22;30716;41.740;-70.400;2023-02-03T16:01:09;26.80;35.70
44982;DHT22;30716;41.740;-70.400;2023-02-03T16:03:42;26.80;35.60
44982;DHT22;30716;41.740;-70.400;2023-02-03T16:06:34;26.80;35.20
44982;DHT22;30716;41.740;-70.400;2023-02-03T16:09:22;26.80;35.10
44982;DHT22;30716;41.740;-70.400;2023-02-03T16:12:00;26.90;35.10
44982;DHT22;30716;41.740;-70.400;2023-02-03T16:14:34;26.90;35.10
44982;DHT22;30716;41.740;-70.400;2023-02-03T16:17:01;27.00;35.80
44982;DHT22;30716;41.740;-70.400;2023-02-03T16:19:29;27.00;35.00
44982;DHT22;30716;41.740;-70.400;2023-02-03T16:21:58;27.00;34.80
44982;DHT22;30716;41.740;-70.400;2023-02-03T16:24:39;27.00;35.00
44982;DHT22;30716;41.740;-70.400;2023-02-03T16:35:52;27.00;34.80
44982;DHT22;30716;41.740;-70.400;2023-02-03T16:38:37;27.00;35.00
44982;DHT22;30716;41.740;-70.400;2023-02-03T16:41:22;27.00;34.80
44982;DHT22;30716;41.740;-70.400;2023-02-03T16:44:10;27.00;34.80
44982;DHT22;30716;41.740;-70.400;2023-02-03T16:46:55;27.00;34.70
44982;DHT22;30716;41.740;-70.400;2023-02-03T16:49:40;27.00;34.70
44982;DHT22;30716;41.740;-70.400;2023-02-03T16:52:24;27.10;35.00
44982;DHT22;30716;41.740;-70.400;2023-02-03T16:54:50;27.10;34.80
44982;DHT22;30716;41.740;-70.400;2023-02-03T16:57:16;27.20;34.60
44982;DHT22;30716;41.740;-70.400;2023-02-03T16:59:43;27.20;34.60
44982;DHT22;30716;41.740;-70.400;2023-02-03T17:02:10;27.20;34.20
44982;DHT22;30716;41.740;-70.400;2023-02-03T17:04:36;27.20;35.00
44982;DHT22;30716;41.740;-70.400;2023-02-03T17:07:02;27.20;34.40
44982;DHT22;30716;41.740;-70.400;2023-02-03T17:09:32;27.30;34.50
44982;DHT22;30716;41.740;-70.400;2023-02-03T17:12:02;27.30;34.30
44982;DHT22;30716;41.740;-70.400;2023-02-03T17:14:29;27.30;34.50
44982;DHT22;30716;41.740;-70.400;2023-02-03T17:16:55;27.30;34.60
44982;DHT22;30716;41.740;-70.400;2023-02-03T17:19:21;27.30;34.50
44982;DHT22;30716;41.740;-70.400;2023-02-03T17:21:48;27.30;34.70
44982;DHT22;30716;41.740;-70.400;2023-02-03T17:24:15;27.20;29.30
44982;DHT22;30716;41.740;-70.400;2023-02-03T17:26:41;27.10;29.50
44982;DHT22;30716;41.740;-70.400;2023-02-03T17:29:09;26.90;28.80
44982;DHT22;30716;41.740;-70.400;2023-02-03T17:31:35;26.70;31.20
44982;DHT22;30716;41.740;-70.400;2023-02-03T17:34:01;26.60;29.80
44982;DHT22;30716;41.740;-70.400;2023-02-03T17:36:27;26.60;31.00
44982;DHT22;30716;41.740;-70.400;2023-02-03T17:38:55;26.60;29.90
44982;DHT22;30716;41.740;-70.400;2023-02-03T17:41:24;26.70;30.20
44982;DHT22;30716;41.740;-70.400;2023-02-03T17:43:51;26.70;29.90
44982;DHT22;30716;41.740;-70.400;2023-02-03T17:46:22;26.60;30.20
44982;DHT22;30716;41.740;-70.400;2023-02-03T17:48:49;26.60;30.50
44982;DHT22;30716;41.740;-70.400;2023-02-03T17:51:20;26.60;30.40
44982;DHT22;30716;41.740;-70.400;2023-02-03T17:53:47;26.50;32.30
44982;DHT22;30716;41.740;-70.400;2023-02-03T17:56:19;26.50;30.60
44982;DHT22;30716;41.740;-70.400;2023-02-03T17:58:45;26.40;30.20
44982;DHT22;30716;41.740;-70.400;2023-02-03T18:01:16;26.30;31.10
44982;DHT22;30716;41.740;-70.400;2023-02-03T18:03:55;26.20;31.50